sensor_id;sensor_type;location;lat;lon;timestamp;P1;durP1;ratioP1;P2;durP2;ratioP2
56455;SDS011;42354;53.218;6.564;2023-04-15T00:02:13;19.70;;;8.18;;
56455;SDS011;42354;53.218;6.564;2023-04-15T00:04:43;18.33;;;9.20;;
56455;SDS011;42354;53.218;6.564;2023-04-15T00:07:09;21.00;;;9.55;;
56455;SDS011;42354;53.218;6.564;2023-04-15T00:09:35;24.63;;;9.63;;
56455;SDS011;42354;53.218;6.564;2023-04-15T00:12:00;22.98;;;8.75;;
56455;SDS011;42354;53.218;6.564;2023-04-15T00:14:26;16.25;;;8.82;;
56455;SDS011;42354;53.218;6.564;2023-04-15T00:16:52;24.00;;;9.98;;
56455;SDS011;42354;53.218;6.564;2023-04-15T00:19:20;22.95;;;10.13;;
56455;SDS011;42354;53.218;6.564;2023-04-15T00:21:45;28.83;;;11.82;;
56455;SDS011;42354;53.218;6.564;2023-04-15T00:24:11;21.55;;;9.93;;
56455;SDS011;42354;53.218;6.564;2023-04-15T00:26:38;18.10;;;9.65;;
56455;SDS011;42354;53.218;6.564;2023-04-15T00:29:05;24.55;;;10.75;;
56455;SDS011;42354;53.218;6.564;2023-04-15T00:31:30;26.42;;;10.55;;
56455;SDS011;42354;53.218;6.564;2023-04-15T00:33:57;24.02;;;11.48;;
56455;SDS011;42354;53.218;6.564;2023-04-15T00:36:22;29.13;;;11.82;;
56455;SDS011;42354;53.218;6.564;2023-04-15T00:38:48;26.85;;;12.45;;
56455;SDS011;42354;53.218;6.564;2023-04-15T00:41:13;22.05;;;10.07;;
56455;SDS011;42354;53.218;6.564;2023-04-15T00:43:39;24.25;;;11.23;;
56455;SDS011;42354;53.218;6.564;2023-04-15T00:46:05;22.80;;;10.73;;
56455;SDS011;42354;53.218;6.564;2023-04-15T00:48:31;22.88;;;11.50;;
56455;SDS011;42354;53.218;6.564;2023-04-15T00:50:57;22.50;;;10.63;;
56455;SDS011;42354;53.218;6.564;2023-04-15T00:53:23;24.65;;;11.35;;
56455;SDS011;42354;53.218;6.564;2023-04-15T00:55:50;22.42;;;11.75;;
56455;SDS011;42354;53.218;6.564;2023-04-15T00:58:15;19.55;;;9.25;;
56455;SDS011;42354;53.218;6.564;2023-04-15T01:00:43;18.17;;;9.25;;
56455;SDS011;42354;53.218;6.564;2023-04-15T01:03:10;24.67;;;12.20;;
56455;SDS011;42354;53.218;6.564;2023-04-15T01:05:36;26.02;;;12.05;;
56455;SDS011;42354;53.218;6.564;2023-04-15T01:08:02;24.20;;;10.40;;
56455;SDS011;42354;53.218;6.564;2023-04-15T01:10:28;22.98;;;11.38;;
56455;SDS011;42354;53.218;6.564;2023-04-15T01:12:55;22.35;;;10.88;;
56455;SDS011;42354;53.218;6.564;2023-04-15T01:15:22;21.23;;;10.60;;
56455;SDS011;42354;53.218;6.564;2023-04-15T01:17:48;22.25;;;10.65;;
56455;SDS011;42354;53.218;6.564;2023-04-15T01:20:14;29.02;;;12.07;;
56455;SDS011;42354;53.218;6.564;2023-04-15T01:22:40;21.92;;;10.90;;
56455;SDS011;42354;53.218;6.564;2023-04-15T01:25:09;25.60;;;11.27;;
56455;SDS011;42354;53.218;6.564;2023-04-15T01:27:37;26.15;;;11.23;;
56455;SDS011;42354;53.218;6.564;2023-04-15T01:30:06;22.40;;;11.55;;
56455;SDS011;42354;53.218;6.564;2023-04-15T01:32:32;24.85;;;11.20;;
56455;SDS011;42354;53.218;6.564;2023-04-15T01:34:58;23.63;;;11.52;;
56455;SDS011;42354;53.218;6.564;2023-04-15T01:37:23;24.65;;;11.55;;
56455;SDS011;42354;53.218;6.564;2023-04-15T01:39:50;21.98;;;11.48;;
56455;SDS011;42354;53.218;6.564;2023-04-15T01:42:16;23.25;;;11.25;;
56455;SDS011;42354;53.218;6.564;2023-04-15T01:44:41;22.63;;;11.48;;
56455;SDS011;42354;53.218;6.564;2023-04-15T01:47:06;17.13;;;10.20;;
56455;SDS011;42354;53.218;6.564;2023-04-15T01:49:33;19.30;;;10.05;;
56455;SDS011;42354;53.218;6.564;2023-04-15T01:51:59;17.40;;;9.77;;
56455;SDS011;42354;53.218;6.564;2023-04-15T01:54:25;18.80;;;9.35;;
56455;SDS011;42354;53.218;6.564;2023-04-15T01:56:52;17.92;;;9.50;;
56455;SDS011;42354;53.218;6.564;2023-04-15T01:59:17;19.55;;;9.85;;
56455;SDS011;42354;53.218;6.564;2023-04-15T02:01:43;20.85;;;10.57;;
56455;SDS011;42354;53.218;6.564;2023-04-15T02:04:10;20.48;;;10.68;;
56455;SDS011;42354;53.218;6.564;2023-04-15T02:06:44;17.02;;;10.05;;
56455;SDS011;42354;53.218;6.564;2023-04-15T02:09:11;22.10;;;10.85;;
56455;SDS011;42354;53.218;6.564;2023-04-15T02:11:37;25.77;;;10.52;;
56455;SDS011;42354;53.218;6.564;2023-04-15T02:14:03;20.75;;;10.90;;
56455;SDS011;42354;53.218;6.564;2023-04-15T02:16:30;20.50;;;11.13;;
56455;SDS011;42354;53.218;6.564;2023-04-15T02:18:56;23.08;;;12.13;;
56455;SDS011;42354;53.218;6.564;2023-04-15T02:21:25;22.13;;;11.73;;
56455;SDS011;42354;53.218;6.564;2023-04-15T02:23:50;24.48;;;12.30;;
56455;SDS011;42354;53.218;6.564;2023-04-15T02:26:17;24.50;;;11.88;;
56455;SDS011;42354;53.218;6.564;2023-04-15T02:28:43;25.05;;;11.68;;
56455;SDS011;42354;53.218;6.564;2023-04-15T02:31:08;23.73;;;11.77;;
56455;SDS011;42354;53.218;6.564;2023-04-15T02:33:33;22.25;;;12.65;;
56455;SDS011;42354;53.218;6.564;2023-04-15T02:35:59;22.75;;;12.13;;
56455;SDS011;42354;53.218;6.564;2023-04-15T02:38:25;23.05;;;12.30;;
56455;SDS011;42354;53.218;6.564;2023-04-15T02:40:51;23.65;;;12.43;;
56455;SDS011;42354;53.218;6.564;2023-04-15T02:43:17;27.02;;;12.52;;
56455;SDS011;42354;53.218;6.564;2023-04-15T02:45:42;22.30;;;12.40;;
56455;SDS011;42354;53.218;6.564;2023-04-15T02:48:09;25.63;;;12.55;;
56455;SDS011;42354;53.218;6.564;2023-04-15T02:50:35;23.88;;;12.98;;
56455;SDS011;42354;53.218;6.564;2023-04-15T02:53:03;26.67;;;12.88;;
56455;SDS011;42354;53.218;6.564;2023-04-15T02:55:29;24.73;;;12.93;;
56455;SDS011;42354;53.218;6.564;2023-04-15T02:57:55;26.50;;;13.48;;
56455;SDS011;42354;53.218;6.564;2023-04-15T03:00:25;27.88;;;13.68;;
56455;SDS011;42354;53.218;6.564;2023-04-15T03:02:51;28.73;;;14.13;;
56455;SDS011;42354;53.218;6.564;2023-04-15T03:05:22;23.30;;;13.32;;
56455;SDS011;42354;53.218;6.564;2023-04-15T03:07:51;23.65;;;13.80;;
56455;SDS011;42354;53.218;6.564;2023-04-15T03:10:16;23.65;;;13.77;;
56455;SDS011;42354;53.218;6.564;2023-04-15T03:12:48;30.17;;;14.60;;
56455;SDS011;42354;53.218;6.564;2023-04-15T03:15:13;28.02;;;14.32;;
56455;SDS011;42354;53.218;6.564;2023-04-15T03:17:39;26.85;;;14.27;;
56455;SDS011;42354;53.218;6.564;2023-04-15T03:20:05;28.35;;;14.57;;
56455;SDS011;42354;53.218;6.564;2023-04-15T03:22:31;27.75;;;14.45;;
56455;SDS011;42354;53.218;6.564;2023-04-15T03:24:57;25.27;;;14.48;;
56455;SDS011;42354;53.218;6.564;2023-04-15T03:27:23;30.05;;;15.30;;
56455;SDS011;42354;53.218;6.564;2023-04-15T03:29:48;26.38;;;14.15;;
56455;SDS011;42354;53.218;6.564;2023-04-15T03:32:14;32.13;;;15.55;;
56455;SDS011;42354;53.218;6.564;2023-04-15T03:34:39;29.40;;;15.93;;
56455;SDS011;42354;53.218;6.564;2023-04-15T03:37:06;30.13;;;15.48;;
56455;SDS011;42354;53.218;6.564;2023-04-15T03:39:31;29.75;;;16.63;;
56455;SDS011;42354;53.218;6.564;2023-04-15T03:41:57;27.55;;;15.40;;
56455;SDS011;42354;53.218;6.564;2023-04-15T03:44:23;36.20;;;17.25;;
56455;SDS011;42354;53.218;6.564;2023-04-15T03:46:50;33.30;;;15.68;;
56455;SDS011;42354;53.218;6.564;2023-04-15T03:49:15;32.08;;;15.93;;
56455;SDS011;42354;53.218;6.564;2023-04-15T03:51:41;30.73;;;15.73;;
56455;SDS011;42354;53.218;6.564;2023-04-15T03:54:07;34.42;;;16.92;;
56455;SDS011;42354;53.218;6.564;2023-04-15T03:56:33;32.17;;;17.23;;
56455;SDS011;42354;53.218;6.564;2023-04-15T03:58:58;33.17;;;17.05;;
56455;SDS011;42354;53.218;6.564;2023-04-15T04:01:24;33.30;;;17.10;;
56455;SDS011;42354;53.218;6.564;2023-04-15T04:03:49;34.38;;;17.55;;
56455;SDS011;42354;53.218;6.564;2023-04-15T04:06:15;33.67;;;18.73;;
56455;SDS011;42354;53.218;6.564;2023-04-15T04:08:42;33.15;;;17.15;;
56455;SDS011;42354;53.218;6.564;2023-04-15T04:11:10;34.58;;;18.65;;
56455;SDS011;42354;53.218;6.564;2023-04-15T04:13:35;34.67;;;17.90;;
56455;SDS011;42354;53.218;6.564;2023-04-15T04:16:01;30.25;;;16.05;;
56455;SDS011;42354;53.218;6.564;2023-04-15T04:18:28;29.05;;;16.40;;
56455;SDS011;42354;53.218;6.564;2023-04-15T04:20:54;26.92;;;15.07;;
56455;SDS011;42354;53.218;6.564;2023-04-15T04:23:19;29.95;;;14.70;;
56455;SDS011;42354;53.218;6.564;2023-04-15T04:25:45;30.15;;;15.27;;
56455;SDS011;42354;53.218;6.564;2023-04-15T04:28:10;26.08;;;14.15;;
56455;SDS011;42354;53.218;6.564;2023-04-15T04:30:37;30.27;;;16.67;;
56455;SDS011;42354;53.218;6.564;2023-04-15T04:33:02;25.95;;;15.27;;
56455;SDS011;42354;53.218;6.564;2023-04-15T04:35:28;26.40;;;14.02;;
56455;SDS011;42354;53.218;6.564;2023-04-15T04:37:54;24.60;;;14.15;;
56455;SDS011;42354;53.218;6.564;2023-04-15T04:40:20;25.25;;;13.85;;
56455;SDS011;42354;53.218;6.564;2023-04-15T04:42:46;26.65;;;14.57;;
56455;SDS011;42354;53.218;6.564;2023-04-15T04:45:11;25.05;;;14.98;;
56455;SDS011;42354;53.218;6.564;2023-04-15T04:47:37;30.10;;;15.35;;
56455;SDS011;42354;53.218;6.564;2023-04-15T04:50:02;26.83;;;14.93;;
56455;SDS011;42354;53.218;6.564;2023-04-15T04:52:28;33.08;;;15.70;;
56455;SDS011;42354;53.218;6.564;2023-04-15T04:54:55;25.88;;;15.20;;
56455;SDS011;42354;53.218;6.564;2023-04-15T04:57:20;27.55;;;15.60;;
56455;SDS011;42354;53.218;6.564;2023-04-15T04:59:45;28.55;;;15.75;;
56455;SDS011;42354;53.218;6.564;2023-04-15T05:02:11;29.52;;;15.57;;
56455;SDS011;42354;53.218;6.564;2023-04-15T05:04:36;26.25;;;14.52;;
56455;SDS011;42354;53.218;6.564;2023-04-15T05:07:01;26.73;;;14.88;;
56455;SDS011;42354;53.218;6.564;2023-04-15T05:09:27;31.67;;;15.40;;
56455;SDS011;42354;53.218;6.564;2023-04-15T05:11:53;28.67;;;15.52;;
56455;SDS011;42354;53.218;6.564;2023-04-15T05:14:18;26.63;;;15.05;;
56455;SDS011;42354;53.218;6.564;2023-04-15T05:16:44;28.30;;;15.55;;
56455;SDS011;42354;53.218;6.564;2023-04-15T05:19:09;28.98;;;16.15;;
56455;SDS011;42354;53.218;6.564;2023-04-15T05:21:34;29.48;;;15.77;;
56455;SDS011;42354;53.218;6.564;2023-04-15T05:24:00;29.13;;;16.58;;
56455;SDS011;42354;53.218;6.564;2023-04-15T05:26:25;31.05;;;16.52;;
56455;SDS011;42354;53.218;6.564;2023-04-15T05:28:51;29.83;;;16.60;;
56455;SDS011;42354;53.218;6.564;2023-04-15T05:31:16;29.55;;;16.38;;
56455;SDS011;42354;53.218;6.564;2023-04-15T05:33:42;32.33;;;18.15;;
56455;SDS011;42354;53.218;6.564;2023-04-15T05:36:07;33.15;;;16.27;;
56455;SDS011;42354;53.218;6.564;2023-04-15T05:38:33;27.55;;;15.07;;
56455;SDS011;42354;53.218;6.564;2023-04-15T05:40:58;27.00;;;15.05;;
56455;SDS011;42354;53.218;6.564;2023-04-15T05:43:24;28.15;;;15.70;;
56455;SDS011;42354;53.218;6.564;2023-04-15T05:45:49;27.50;;;15.15;;
56455;SDS011;42354;53.218;6.564;2023-04-15T05:48:14;29.42;;;14.73;;
56455;SDS011;42354;53.218;6.564;2023-04-15T05:50:40;29.15;;;15.13;;
56455;SDS011;42354;53.218;6.564;2023-04-15T05:53:06;31.58;;;15.68;;
56455;SDS011;42354;53.218;6.564;2023-04-15T05:55:32;31.20;;;15.25;;
56455;SDS011;42354;53.218;6.564;2023-04-15T05:57:57;27.52;;;15.27;;
56455;SDS011;42354;53.218;6.564;2023-04-15T06:00:23;28.08;;;15.23;;
56455;SDS011;42354;53.218;6.564;2023-04-15T06:02:48;30.42;;;15.02;;
56455;SDS011;42354;53.218;6.564;2023-04-15T06:05:14;27.90;;;15.07;;
56455;SDS011;42354;53.218;6.564;2023-04-15T06:07:39;25.42;;;13.85;;
56455;SDS011;42354;53.218;6.564;2023-04-15T06:10:05;30.45;;;16.33;;
56455;SDS011;42354;53.218;6.564;2023-04-15T06:12:31;29.17;;;15.55;;
56455;SDS011;42354;53.218;6.564;2023-04-15T06:14:56;28.90;;;14.10;;
56455;SDS011;42354;53.218;6.564;2023-04-15T06:17:24;27.02;;;14.68;;
56455;SDS011;42354;53.218;6.564;2023-04-15T06:19:49;28.33;;;14.35;;
56455;SDS011;42354;53.218;6.564;2023-04-15T06:22:19;27.75;;;14.43;;
56455;SDS011;42354;53.218;6.564;2023-04-15T06:24:47;24.70;;;13.50;;
56455;SDS011;42354;53.218;6.564;2023-04-15T06:27:14;25.80;;;13.60;;
56455;SDS011;42354;53.218;6.564;2023-04-15T06:29:41;24.95;;;13.95;;
56455;SDS011;42354;53.218;6.564;2023-04-15T06:32:07;23.70;;;13.63;;
56455;SDS011;42354;53.218;6.564;2023-04-15T06:34:32;23.98;;;13.63;;
56455;SDS011;42354;53.218;6.564;2023-04-15T06:36:57;26.30;;;12.77;;
56455;SDS011;42354;53.218;6.564;2023-04-15T06:39:23;23.67;;;13.32;;
56455;SDS011;42354;53.218;6.564;2023-04-15T06:41:48;27.70;;;13.55;;
56455;SDS011;42354;53.218;6.564;2023-04-15T06:44:14;26.85;;;13.70;;
56455;SDS011;42354;53.218;6.564;2023-04-15T06:46:42;23.05;;;12.68;;
56455;SDS011;42354;53.218;6.564;2023-04-15T06:49:09;26.50;;;13.25;;
56455;SDS011;42354;53.218;6.564;2023-04-15T06:51:35;22.38;;;12.95;;
56455;SDS011;42354;53.218;6.564;2023-04-15T06:54:01;24.05;;;13.30;;
56455;SDS011;42354;53.218;6.564;2023-04-15T06:56:29;25.95;;;12.93;;
56455;SDS011;42354;53.218;6.564;2023-04-15T06:58:55;26.15;;;13.20;;
56455;SDS011;42354;53.218;6.564;2023-04-15T07:01:22;23.15;;;13.07;;
56455;SDS011;42354;53.218;6.564;2023-04-15T07:03:47;26.00;;;13.35;;
56455;SDS011;42354;53.218;6.564;2023-04-15T07:06:14;22.10;;;12.73;;
56455;SDS011;42354;53.218;6.564;2023-04-15T07:08:39;23.33;;;11.75;;
56455;SDS011;42354;53.218;6.564;2023-04-15T07:11:05;23.20;;;11.40;;
56455;SDS011;42354;53.218;6.564;2023-04-15T07:13:31;22.60;;;11.15;;
56455;SDS011;42354;53.218;6.564;2023-04-15T07:15:57;22.30;;;10.75;;
56455;SDS011;42354;53.218;6.564;2023-04-15T07:18:22;19.58;;;10.13;;
56455;SDS011;42354;53.218;6.564;2023-04-15T07:20:48;22.20;;;11.20;;
56455;SDS011;42354;53.218;6.564;2023-04-15T07:23:13;17.90;;;9.50;;
56455;SDS011;42354;53.218;6.564;2023-04-15T07:25:39;16.42;;;8.80;;
56455;SDS011;42354;53.218;6.564;2023-04-15T07:28:04;19.13;;;9.82;;
56455;SDS011;42354;53.218;6.564;2023-04-15T07:30:30;18.50;;;9.00;;
56455;SDS011;42354;53.218;6.564;2023-04-15T07:32:57;16.65;;;8.23;;
56455;SDS011;42354;53.218;6.564;2023-04-15T07:35:24;18.98;;;8.20;;
56455;SDS011;42354;53.218;6.564;2023-04-15T07:37:51;16.30;;;8.35;;
56455;SDS011;42354;53.218;6.564;2023-04-15T07:40:17;17.15;;;9.15;;
56455;SDS011;42354;53.218;6.564;2023-04-15T07:42:42;14.70;;;7.90;;
56455;SDS011;42354;53.218;6.564;2023-04-15T07:45:08;17.42;;;8.00;;
56455;SDS011;42354;53.218;6.564;2023-04-15T07:47:36;13.15;;;7.80;;
56455;SDS011;42354;53.218;6.564;2023-04-15T07:50:02;12.40;;;6.80;;
56455;SDS011;42354;53.218;6.564;2023-04-15T07:52:27;15.50;;;8.02;;
56455;SDS011;42354;53.218;6.564;2023-04-15T07:54:53;14.95;;;8.15;;
56455;SDS011;42354;53.218;6.564;2023-04-15T07:57:18;13.43;;;7.25;;
56455;SDS011;42354;53.218;6.564;2023-04-15T07:59:44;15.30;;;7.57;;
56455;SDS011;42354;53.218;6.564;2023-04-15T08:02:12;16.25;;;7.47;;
56455;SDS011;42354;53.218;6.564;2023-04-15T08:04:38;18.80;;;7.53;;
56455;SDS011;42354;53.218;6.564;2023-04-15T08:07:03;15.32;;;7.22;;
56455;SDS011;42354;53.218;6.564;2023-04-15T08:09:30;12.77;;;6.85;;
56455;SDS011;42354;53.218;6.564;2023-04-15T08:11:55;13.63;;;7.15;;
56455;SDS011;42354;53.218;6.564;2023-04-15T08:14:21;12.38;;;6.63;;
56455;SDS011;42354;53.218;6.564;2023-04-15T08:16:48;13.23;;;6.32;;
56455;SDS011;42354;53.218;6.564;2023-04-15T08:19:13;11.93;;;6.30;;
56455;SDS011;42354;53.218;6.564;2023-04-15T08:21:39;10.82;;;5.13;;
56455;SDS011;42354;53.218;6.564;2023-04-15T08:24:05;10.38;;;5.32;;
56455;SDS011;42354;53.218;6.564;2023-04-15T08:26:31;11.10;;;5.45;;
56455;SDS011;42354;53.218;6.564;2023-04-15T08:28:56;10.07;;;5.25;;
56455;SDS011;42354;53.218;6.564;2023-04-15T08:31:22;9.43;;;4.82;;
56455;SDS011;42354;53.218;6.564;2023-04-15T08:33:47;12.05;;;5.43;;
56455;SDS011;42354;53.218;6.564;2023-04-15T08:36:13;10.85;;;4.40;;
56455;SDS011;42354;53.218;6.564;2023-04-15T08:38:38;15.85;;;4.82;;
56455;SDS011;42354;53.218;6.564;2023-04-15T08:41:06;8.20;;;4.10;;
56455;SDS011;42354;53.218;6.564;2023-04-15T08:43:39;7.28;;;3.67;;
56455;SDS011;42354;53.218;6.564;2023-04-15T08:46:13;8.48;;;4.10;;
56455;SDS011;42354;53.218;6.564;2023-04-15T08:48:39;7.22;;;3.53;;
56455;SDS011;42354;53.218;6.564;2023-04-15T08:51:06;10.07;;;3.60;;
56455;SDS011;42354;53.218;6.564;2023-04-15T08:53:32;6.82;;;3.25;;
56455;SDS011;42354;53.218;6.564;2023-04-15T08:55:58;5.55;;;2.58;;
56455;SDS011;42354;53.218;6.564;2023-04-15T08:58:28;7.57;;;2.70;;
56455;SDS011;42354;53.218;6.564;2023-04-15T09:00:55;8.00;;;2.20;;
56455;SDS011;42354;53.218;6.564;2023-04-15T09:03:22;6.10;;;3.08;;
56455;SDS011;42354;53.218;6.564;2023-04-15T09:05:48;7.03;;;2.22;;
56455;SDS011;42354;53.218;6.564;2023-04-15T09:08:14;7.32;;;2.28;;
56455;SDS011;42354;53.218;6.564;2023-04-15T09:10:41;6.53;;;2.58;;
56455;SDS011;42354;53.218;6.564;2023-04-15T09:13:07;6.03;;;2.85;;
56455;SDS011;42354;53.218;6.564;2023-04-15T09:15:35;7.75;;;2.33;;
56455;SDS011;42354;53.218;6.564;2023-04-15T09:18:03;8.20;;;2.35;;
56455;SDS011;42354;53.218;6.564;2023-04-15T09:20:29;3.85;;;1.80;;
56455;SDS011;42354;53.218;6.564;2023-04-15T09:22:56;3.47;;;1.70;;
56455;SDS011;42354;53.218;6.564;2023-04-15T09:27:48;4.90;;;1.75;;
56455;SDS011;42354;53.218;6.564;2023-04-15T09:30:16;3.20;;;1.83;;
56455;SDS011;42354;53.218;6.564;2023-04-15T09:32:49;5.22;;;1.90;;
56455;SDS011;42354;53.218;6.564;2023-04-15T09:35:19;4.88;;;1.90;;
56455;SDS011;42354;53.218;6.564;2023-04-15T09:37:45;3.08;;;1.65;;
56455;SDS011;42354;53.218;6.564;2023-04-15T09:40:11;7.90;;;2.22;;
56455;SDS011;42354;53.218;6.564;2023-04-15T09:42:52;5.10;;;1.83;;
56455;SDS011;42354;53.218;6.564;2023-04-15T09:45:18;4.40;;;2.03;;
56455;SDS011;42354;53.218;6.564;2023-04-15T09:47:45;5.88;;;1.83;;
56455;SDS011;42354;53.218;6.564;2023-04-15T09:50:10;5.88;;;1.75;;
56455;SDS011;42354;53.218;6.564;2023-04-15T09:52:40;4.43;;;1.60;;
56455;SDS011;42354;53.218;6.564;2023-04-15T09:55:07;2.38;;;1.50;;
56455;SDS011;42354;53.218;6.564;2023-04-15T09:57:33;3.45;;;1.40;;
56455;SDS011;42354;53.218;6.564;2023-04-15T10:00:00;3.03;;;1.40;;
56455;SDS011;42354;53.218;6.564;2023-04-15T10:02:29;2.22;;;1.23;;
56455;SDS011;42354;53.218;6.564;2023-04-15T10:04:55;4.00;;;1.50;;
56455;SDS011;42354;53.218;6.564;2023-04-15T10:07:22;4.10;;;1.25;;
56455;SDS011;42354;53.218;6.564;2023-04-15T10:09:50;5.88;;;1.40;;
56455;SDS011;42354;53.218;6.564;2023-04-15T10:12:16;2.53;;;1.38;;
56455;SDS011;42354;53.218;6.564;2023-04-15T10:14:43;5.40;;;1.73;;
56455;SDS011;42354;53.218;6.564;2023-04-15T10:17:14;5.93;;;1.83;;
56455;SDS011;42354;53.218;6.564;2023-04-15T10:19:42;17.45;;;2.63;;
56455;SDS011;42354;53.218;6.564;2023-04-15T10:22:08;5.85;;;2.17;;
56455;SDS011;42354;53.218;6.564;2023-04-15T10:24:34;7.40;;;2.10;;
56455;SDS011;42354;53.218;6.564;2023-04-15T10:27:04;7.85;;;2.00;;
56455;SDS011;42354;53.218;6.564;2023-04-15T10:29:30;6.88;;;2.20;;
56455;SDS011;42354;53.218;6.564;2023-04-15T10:31:56;7.72;;;1.80;;
56455;SDS011;42354;53.218;6.564;2023-04-15T10:34:26;9.23;;;2.30;;
56455;SDS011;42354;53.218;6.564;2023-04-15T10:36:55;8.07;;;2.25;;
56455;SDS011;42354;53.218;6.564;2023-04-15T10:42:07;9.85;;;2.60;;
56455;SDS011;42354;53.218;6.564;2023-04-15T10:44:35;6.13;;;2.20;;
56455;SDS011;42354;53.218;6.564;2023-04-15T10:47:05;9.00;;;2.67;;
56455;SDS011;42354;53.218;6.564;2023-04-15T10:49:35;10.52;;;2.67;;
56455;SDS011;42354;53.218;6.564;2023-04-15T10:52:09;8.35;;;3.20;;
56455;SDS011;42354;53.218;6.564;2023-04-15T10:54:36;7.78;;;2.85;;
56455;SDS011;42354;53.218;6.564;2023-04-15T10:59:29;7.43;;;2.50;;
56455;SDS011;42354;53.218;6.564;2023-04-15T11:01:56;6.50;;;2.58;;
56455;SDS011;42354;53.218;6.564;2023-04-15T11:09:57;7.60;;;2.67;;
56455;SDS011;42354;53.218;6.564;2023-04-15T11:12:22;13.02;;;2.20;;
56455;SDS011;42354;53.218;6.564;2023-04-15T11:14:59;6.65;;;1.75;;
56455;SDS011;42354;53.218;6.564;2023-04-15T11:17:51;8.00;;;1.88;;
56455;SDS011;42354;53.218;6.564;2023-04-15T11:20:16;7.72;;;1.80;;
56455;SDS011;42354;53.218;6.564;2023-04-15T11:22:49;9.63;;;2.08;;
56455;SDS011;42354;53.218;6.564;2023-04-15T11:25:22;4.53;;;1.50;;
56455;SDS011;42354;53.218;6.564;2023-04-15T11:27:51;9.82;;;1.90;;
56455;SDS011;42354;53.218;6.564;2023-04-15T11:30:18;7.47;;;1.65;;
56455;SDS011;42354;53.218;6.564;2023-04-15T11:32:46;16.70;;;2.60;;
56455;SDS011;42354;53.218;6.564;2023-04-15T11:35:12;8.63;;;2.15;;
56455;SDS011;42354;53.218;6.564;2023-04-15T11:37:37;9.32;;;2.30;;
56455;SDS011;42354;53.218;6.564;2023-04-15T11:40:03;8.27;;;2.28;;
56455;SDS011;42354;53.218;6.564;2023-04-15T11:42:30;10.93;;;2.00;;
56455;SDS011;42354;53.218;6.564;2023-04-15T11:45:11;11.30;;;2.10;;
56455;SDS011;42354;53.218;6.564;2023-04-15T11:47:38;14.90;;;2.60;;
56455;SDS011;42354;53.218;6.564;2023-04-15T11:50:21;7.78;;;1.88;;
56455;SDS011;42354;53.218;6.564;2023-04-15T11:52:52;7.28;;;1.75;;
56455;SDS011;42354;53.218;6.564;2023-04-15T11:55:18;11.55;;;2.60;;
56455;SDS011;42354;53.218;6.564;2023-04-15T11:57:45;8.82;;;2.45;;
56455;SDS011;42354;53.218;6.564;2023-04-15T12:00:12;12.32;;;1.92;;
56455;SDS011;42354;53.218;6.564;2023-04-15T12:02:37;8.48;;;2.15;;
56455;SDS011;42354;53.218;6.564;2023-04-15T12:05:07;7.28;;;2.45;;
56455;SDS011;42354;53.218;6.564;2023-04-15T12:07:34;10.20;;;2.10;;
56455;SDS011;42354;53.218;6.564;2023-04-15T12:10:23;8.02;;;1.85;;
56455;SDS011;42354;53.218;6.564;2023-04-15T12:12:50;4.53;;;1.70;;
56455;SDS011;42354;53.218;6.564;2023-04-15T12:15:17;11.27;;;2.22;;
56455;SDS011;42354;53.218;6.564;2023-04-15T12:17:45;8.32;;;1.55;;
56455;SDS011;42354;53.218;6.564;2023-04-15T12:20:12;9.68;;;2.45;;
56455;SDS011;42354;53.218;6.564;2023-04-15T12:22:37;9.00;;;2.50;;
56455;SDS011;42354;53.218;6.564;2023-04-15T12:25:03;10.43;;;1.75;;
56455;SDS011;42354;53.218;6.564;2023-04-15T12:27:30;8.10;;;1.90;;
56455;SDS011;42354;53.218;6.564;2023-04-15T12:30:14;8.15;;;1.70;;
56455;SDS011;42354;53.218;6.564;2023-04-15T12:32:39;10.30;;;2.22;;
56455;SDS011;42354;53.218;6.564;2023-04-15T12:35:06;8.55;;;1.95;;
56455;SDS011;42354;53.218;6.564;2023-04-15T12:37:33;11.90;;;1.90;;
56455;SDS011;42354;53.218;6.564;2023-04-15T12:39:58;10.00;;;2.45;;
56455;SDS011;42354;53.218;6.564;2023-04-15T12:42:23;10.75;;;2.30;;
56455;SDS011;42354;53.218;6.564;2023-04-15T12:44:51;8.25;;;1.73;;
56455;SDS011;42354;53.218;6.564;2023-04-15T12:47:18;15.70;;;2.17;;
56455;SDS011;42354;53.218;6.564;2023-04-15T12:49:43;11.73;;;1.73;;
56455;SDS011;42354;53.218;6.564;2023-04-15T12:52:11;10.70;;;2.13;;
56455;SDS011;42354;53.218;6.564;2023-04-15T12:54:36;11.35;;;1.90;;
56455;SDS011;42354;53.218;6.564;2023-04-15T12:57:01;9.57;;;2.50;;
56455;SDS011;42354;53.218;6.564;2023-04-15T12:59:27;10.38;;;2.30;;
56455;SDS011;42354;53.218;6.564;2023-04-15T13:01:53;9.40;;;1.58;;
56455;SDS011;42354;53.218;6.564;2023-04-15T13:04:20;7.90;;;1.95;;
56455;SDS011;42354;53.218;6.564;2023-04-15T13:06:48;10.77;;;2.30;;
56455;SDS011;42354;53.218;6.564;2023-04-15T13:09:13;18.00;;;2.53;;
56455;SDS011;42354;53.218;6.564;2023-04-15T13:11:39;8.13;;;1.98;;
56455;SDS011;42354;53.218;6.564;2023-04-15T13:14:06;10.32;;;2.55;;
56455;SDS011;42354;53.218;6.564;2023-04-15T13:16:35;12.75;;;2.22;;
56455;SDS011;42354;53.218;6.564;2023-04-15T13:19:01;11.77;;;2.13;;
56455;SDS011;42354;53.218;6.564;2023-04-15T13:21:27;13.93;;;2.65;;
56455;SDS011;42354;53.218;6.564;2023-04-15T13:23:59;14.65;;;2.83;;
56455;SDS011;42354;53.218;6.564;2023-04-15T13:26:25;10.52;;;2.13;;
56455;SDS011;42354;53.218;6.564;2023-04-15T13:28:52;11.02;;;2.20;;
56455;SDS011;42354;53.218;6.564;2023-04-15T13:31:18;11.65;;;2.05;;
56455;SDS011;42354;53.218;6.564;2023-04-15T13:33:44;13.15;;;2.45;;
56455;SDS011;42354;53.218;6.564;2023-04-15T13:36:09;11.40;;;2.10;;
56455;SDS011;42354;53.218;6.564;2023-04-15T13:38:34;17.60;;;2.67;;
56455;SDS011;42354;53.218;6.564;2023-04-15T13:41:00;9.60;;;2.30;;
56455;SDS011;42354;53.218;6.564;2023-04-15T13:43:25;12.00;;;2.22;;
56455;SDS011;42354;53.218;6.564;2023-04-15T13:45:52;14.63;;;2.25;;
56455;SDS011;42354;53.218;6.564;2023-04-15T13:48:18;13.80;;;2.88;;
56455;SDS011;42354;53.218;6.564;2023-04-15T13:50:44;9.77;;;2.15;;
56455;SDS011;42354;53.218;6.564;2023-04-15T13:53:13;8.50;;;2.30;;
56455;SDS011;42354;53.218;6.564;2023-04-15T13:55:39;10.93;;;2.33;;
56455;SDS011;42354;53.218;6.564;2023-04-15T13:58:07;10.68;;;2.90;;
56455;SDS011;42354;53.218;6.564;2023-04-15T14:00:35;11.50;;;3.20;;
56455;SDS011;42354;53.218;6.564;2023-04-15T14:03:00;15.63;;;2.70;;
56455;SDS011;42354;53.218;6.564;2023-04-15T14:05:28;13.38;;;2.83;;
56455;SDS011;42354;53.218;6.564;2023-04-15T14:07:53;16.15;;;3.70;;
56455;SDS011;42354;53.218;6.564;2023-04-15T14:10:18;9.57;;;2.63;;
56455;SDS011;42354;53.218;6.564;2023-04-15T14:12:45;14.15;;;2.72;;
56455;SDS011;42354;53.218;6.564;2023-04-15T14:15:11;13.73;;;4.03;;
56455;SDS011;42354;53.218;6.564;2023-04-15T14:17:36;15.45;;;4.75;;
56455;SDS011;42354;53.218;6.564;2023-04-15T14:20:02;15.35;;;3.60;;
56455;SDS011;42354;53.218;6.564;2023-04-15T14:22:30;15.07;;;2.97;;
56455;SDS011;42354;53.218;6.564;2023-04-15T14:24:56;11.35;;;2.88;;
56455;SDS011;42354;53.218;6.564;2023-04-15T14:27:21;23.85;;;4.53;;
56455;SDS011;42354;53.218;6.564;2023-04-15T14:29:47;13.63;;;2.97;;
56455;SDS011;42354;53.218;6.564;2023-04-15T14:32:20;10.65;;;2.78;;
56455;SDS011;42354;53.218;6.564;2023-04-15T14:34:45;16.38;;;3.97;;
56455;SDS011;42354;53.218;6.564;2023-04-15T14:37:12;12.90;;;3.47;;
56455;SDS011;42354;53.218;6.564;2023-04-15T14:39:37;18.27;;;2.97;;
56455;SDS011;42354;53.218;6.564;2023-04-15T14:42:04;18.73;;;3.75;;